createdAt,value
2023-01-03T00:01:07.572Z,1.20
2023-01-03T00:11:14.128Z,1.03
2023-01-03T00:21:15.770Z,1.20
2023-01-03T00:31:17.429Z,1.30
2023-01-03T00:41:20.158Z,2.17
2023-01-03T00:51:27.486Z,2.43
2023-01-03T01:01:31.970Z,2.07
2023-01-03T01:11:34.479Z,1.60
2023-01-03T01:21:36.134Z,1.20
2023-01-03T01:31:38.245Z,1.33
2023-01-03T01:42:15.075Z,1.10
2023-01-03T01:52:21.889Z,1.40
2023-01-03T02:02:24.164Z,1.20
2023-01-03T02:12:52.043Z,1.77
2023-01-03T02:23:16.935Z,1.30
2023-01-03T02:33:31.522Z,1.20
2023-01-03T02:43:37.918Z,1.50
2023-01-03T02:53:46.839Z,1.40
2023-01-03T03:03:49.309Z,1.60
2023-01-03T03:13:56.756Z,1.60
2023-01-03T03:24:35.852Z,1.70
2023-01-03T03:34:38.188Z,2.50
2023-01-03T03:45:02.836Z,2.40
2023-01-03T03:55:19.085Z,2.90
2023-01-03T04:05:24.057Z,2.40
2023-01-03T04:15:25.765Z,2.57
2023-01-03T04:25:27.412Z,2.80
2023-01-03T04:35:29.009Z,2.60
2023-01-03T04:45:30.690Z,2.70
2023-01-03T04:55:32.325Z,3.00
2023-01-03T05:05:35.900Z,3.90
2023-01-03T05:15:39.294Z,3.40
2023-01-03T05:25:50.016Z,3.13
2023-01-03T05:35:51.723Z,2.87
2023-01-03T05:45:53.855Z,5.00
2023-01-03T05:55:56.639Z,4.67
2023-01-03T06:06:02.937Z,3.70
2023-01-03T06:16:35.063Z,5.87
2023-01-03T06:26:37.467Z,3.97
2023-01-03T06:36:39.218Z,4.80
2023-01-03T06:46:59.435Z,4.87
2023-01-03T06:57:01.194Z,5.47
2023-01-03T07:07:02.833Z,5.10
2023-01-03T07:17:04.484Z,5.63
2023-01-03T07:27:06.122Z,4.90
2023-01-03T07:37:07.742Z,6.00
2023-01-03T07:47:09.396Z,5.90
2023-01-03T07:57:11.022Z,6.10
2023-01-03T08:07:12.792Z,5.70
2023-01-03T08:17:14.435Z,7.27
2023-01-03T08:27:18.168Z,6.60
2023-01-03T08:37:20.083Z,7.13
2023-01-03T08:47:21.914Z,7.27
2023-01-03T08:57:23.561Z,8.80
2023-01-03T09:07:25.180Z,7.53
2023-01-03T09:17:26.810Z,6.97
2023-01-03T09:27:28.439Z,7.07
2023-01-03T09:37:30.051Z,6.47
2023-01-03T09:47:36.980Z,8.47
2023-01-03T09:57:57.273Z,8.57
2023-01-03T10:08:43.458Z,7.00
2023-01-03T10:19:00.423Z,6.83
2023-01-03T10:29:02.130Z,7.00
2023-01-03T10:39:09.351Z,6.67
2023-01-03T10:49:28.442Z,6.57
2023-01-03T10:59:32.339Z,4.43
2023-01-03T11:09:48.743Z,5.00
2023-01-03T11:19:53.172Z,3.70
2023-01-03T11:30:24.795Z,2.60
2023-01-03T11:41:07.998Z,2.60
2023-01-03T11:51:32.410Z,2.70
2023-01-03T12:02:22.239Z,2.93
2023-01-03T12:13:00.366Z,3.50
2023-01-03T12:23:15.716Z,3.50
2023-01-03T12:33:46.271Z,3.50
2023-01-03T12:44:18.510Z,3.70
2023-01-03T12:54:27.029Z,3.77
2023-01-03T13:04:34.693Z,3.80
2023-01-03T13:14:57.327Z,3.17
2023-01-03T13:25:32.501Z,3.00
2023-01-03T13:35:58.063Z,2.87
2023-01-03T13:46:19.917Z,2.57
2023-01-03T13:56:24.613Z,2.60
2023-01-03T14:07:07.439Z,3.00
2023-01-03T14:17:18.157Z,2.93
2023-01-03T14:27:23.193Z,3.10
2023-01-03T14:37:26.896Z,3.50
2023-01-03T14:47:39.948Z,3.10
2023-01-03T14:57:43.520Z,3.10
2023-01-03T15:07:45.245Z,2.90
2023-01-03T15:17:51.377Z,3.70
2023-01-03T15:27:53.032Z,10.33
2023-01-03T15:37:55.286Z,3.57
2023-01-03T15:47:59.359Z,5.10
2023-01-03T15:58:01.002Z,3.67
2023-01-03T16:08:05.960Z,4.20
2023-01-03T16:18:09.012Z,4.77
2023-01-03T16:28:12.566Z,4.00
2023-01-03T16:38:15.404Z,3.33
2023-01-03T16:48:20.722Z,3.07
2023-01-03T16:58:24.068Z,3.30
2023-01-03T17:08:38.007Z,3.00
2023-01-03T17:18:42.225Z,2.90
2023-01-03T17:28:45.028Z,2.63
2023-01-03T17:38:46.807Z,2.50
2023-01-03T17:49:07.073Z,2.83
2023-01-03T17:59:12.250Z,3.47
2023-01-03T18:09:15.559Z,3.23
2023-01-03T18:19:17.194Z,3.37
2023-01-03T18:29:18.996Z,3.80
2023-01-03T18:39:28.732Z,3.37
2023-01-03T18:49:30.356Z,4.30
2023-01-03T18:59:32.224Z,3.30
2023-01-03T19:09:34.051Z,7.70
2023-01-03T19:19:35.677Z,4.50
2023-01-03T19:29:38.528Z,3.77
2023-01-03T19:39:40.162Z,5.23
2023-01-03T19:49:42.611Z,5.53
2023-01-03T19:59:48.513Z,6.07
2023-01-03T20:09:50.157Z,6.50
2023-01-03T20:19:53.043Z,7.33
2023-01-03T20:29:54.755Z,7.30
2023-01-03T20:39:56.435Z,8.87
2023-01-03T20:49:58.089Z,8.67
2023-01-03T20:59:59.740Z,6.53
2023-01-03T21:10:01.364Z,4.53
2023-01-03T21:20:03.089Z,4.80
2023-01-03T21:30:05.175Z,3.77
2023-01-03T21:40:13.546Z,3.43
2023-01-03T21:50:15.292Z,4.47
2023-01-03T22:00:18.158Z,4.90
2023-01-03T22:10:20.035Z,5.17
2023-01-03T22:20:24.732Z,4.07
2023-01-03T22:30:26.486Z,3.80
2023-01-03T22:40:28.316Z,3.90
2023-01-03T22:50:29.930Z,4.27
2023-01-03T23:00:31.819Z,4.43
2023-01-03T23:10:33.478Z,4.30
2023-01-03T23:20:35.673Z,3.70
2023-01-03T23:30:37.375Z,3.83
2023-01-03T23:40:40.584Z,4.50
2023-01-03T23:50:42.377Z,5.30
